Time;durP1;ratioP1;P1;durP2;ratioP2;P2;SDS_P1;SDS_P2;PMS_P1;PMS_P2;Temp;Humidity;BMP_temperature;BMP_pressure;BME280_temperature;BME280_humidity;BME280_pressure;Samples;Min_cycle;Max_cycle;Signal;HPM_P1;HPM_P2
2021/05/28 00:01:02;;;;;;;;;15.00;15.00;;;;;19.96;42.17;98832.25;6210045;28;126372;-62
2021/05/28 00:04:05;;;;;;;;;18.00;17.60;;;;;19.97;42.24;98836.63;6208716;28;123956;-62
2021/05/28 00:07:08;;;;;;;;;19.00;16.50;;;;;19.73;42.41;98800.13;6207642;28;126234;-62
2021/05/28 00:10:12;;;;;;;;;17.80;15.00;;;;;19.94;42.67;98833.66;6208883;28;126313;-62
2021/05/28 00:13:15;;;;;;;;;18.00;17.00;;;;;19.84;42.46;98827.13;6209279;28;126223;-63
2021/05/28 00:16:19;;;;;;;;;19.00;17.00;;;;;19.56;42.41;98800.47;6208565;28;96694;-62
2021/05/28 00:19:22;;;;;;;;;18.50;17.50;;;;;19.86;42.29;98830.41;6209454;28;125098;-62
2021/05/28 00:22:24;;;;;;;;;18.60;17.60;;;;;19.80;42.30;98839.72;6209262;28;126299;-62
2021/05/28 00:25:29;;;;;;;;;17.60;16.00;;;;;19.83;42.23;98828.25;6209227;28;126368;-62
2021/05/28 00:28:32;;;;;;;;;18.60;15.80;;;;;19.80;42.37;98839.72;6201447;28;124843;-62
2021/05/28 00:31:35;;;;;;;;;16.00;16.00;;;;;19.76;42.46;98837.84;6204106;28;124844;-62
2021/05/28 00:34:37;;;;;;;;;18.00;16.80;;;;;19.79;42.38;98837.28;6202318;28;126273;-62
2021/05/28 00:37:40;;;;;;;;;15.80;15.80;;;;;19.63;42.59;98831.09;6197230;28;126405;-62
2021/05/28 00:40:43;;;;;;;;;20.00;17.60;;;;;19.75;42.44;98836.19;6187707;28;124998;-62
2021/05/28 00:43:46;;;;;;;;;17.00;15.80;;;;;19.71;42.45;98838.69;6205219;28;125336;-62
2021/05/28 00:46:49;;;;;;;;;18.20;17.20;;;;;19.65;42.25;98839.81;6199787;28;126857;-62
2021/05/28 00:49:52;;;;;;;;;17.40;17.00;;;;;19.58;42.54;98839.31;6200800;28;126560;-62
2021/05/28 00:52:57;;;;;;;;;16.00;16.00;;;;;19.54;42.96;98842.91;6202980;28;126226;-63
2021/05/28 00:56:01;;;;;;;;;17.25;16.00;;;;;19.53;42.79;98842.06;6209545;28;125352;-62
2021/05/28 00:59:05;;;;;;;;;19.00;18.00;;;;;19.44;43.21;98835.56;6214429;28;124903;-62
2021/05/28 01:02:07;;;;;;;;;21.60;19.00;;;;;19.49;43.11;98857.41;6214125;28;127279;-62
2021/05/28 01:05:11;;;;;;;;;20.40;17.00;;;;;19.53;42.95;98850.28;6214311;28;126118;-62
2021/05/28 01:08:14;;;;;;;;;20.00;18.00;;;;;19.14;43.29;98809.13;6212352;28;126216;-62
2021/05/28 01:11:17;;;;;;;;;20.60;18.00;;;;;19.43;43.22;98848.38;6212901;28;124117;-62
2021/05/28 01:14:21;;;;;;;;;19.80;17.80;;;;;19.40;43.50;98843.44;6213161;28;127159;-62
2021/05/28 01:17:24;;;;;;;;;18.00;17.00;;;;;19.51;43.12;98848.91;6210370;28;126733;-62
2021/05/28 01:20:27;;;;;;;;;18.00;17.00;;;;;19.54;43.14;98851.91;6213508;28;126801;-62
2021/05/28 01:23:31;;;;;;;;;18.00;16.00;;;;;19.56;42.79;98846.16;6208856;28;127216;-62
2021/05/28 01:26:33;;;;;;;;;17.00;15.20;;;;;19.46;43.24;98858.78;6200736;28;126317;-62
2021/05/28 01:29:36;;;;;;;;;18.00;17.00;;;;;19.38;43.49;98858.50;6213485;28;125188;-62
2021/05/28 01:32:39;;;;;;;;;19.00;18.67;;;;;19.33;43.78;98858.53;6213179;28;124905;-62
2021/05/28 01:35:42;;;;;;;;;18.60;17.00;;;;;19.32;43.33;98860.44;6204505;28;126438;-62
2021/05/28 01:38:45;;;;;;;;;19.75;18.00;;;;;19.32;43.47;98862.34;6210879;28;123239;-62
2021/05/28 01:41:48;;;;;;;;;18.20;16.00;;;;;19.27;43.57;98876.03;6212400;28;126516;-62
2021/05/28 01:44:53;;;;;;;;;17.25;15.25;;;;;19.22;43.34;98882.34;6212270;28;126296;-62
2021/05/28 01:47:56;;;;;;;;;15.75;15.25;;;;;19.22;43.72;98878.78;6212893;28;125592;-63
2021/05/28 01:50:58;;;;;;;;;18.75;18.00;;;;;19.19;43.85;98874.72;6211645;28;126178;-62
2021/05/28 01:54:02;;;;;;;;;18.00;16.40;;;;;19.07;43.58;98863.25;6202411;28;126347;-62
2021/05/28 01:57:07;;;;;;;;;19.00;18.00;;;;;19.10;43.67;98875.56;6200741;28;126069;-62
2021/05/28 02:00:12;;;;;;;;;17.25;17.00;;;;;19.13;43.40;98880.47;6213509;28;123831;-62
2021/05/28 02:03:15;;;;;;;;;16.20;16.20;;;;;19.18;43.41;98883.19;6199296;28;124606;-62
2021/05/28 02:06:18;;;;;;;;;17.80;16.00;;;;;19.19;43.35;98890.28;6213166;28;126773;-62
2021/05/28 02:09:22;;;;;;;;;15.00;14.00;;;;;19.06;43.69;98886.19;6211635;28;126386;-62
2021/05/28 02:12:25;;;;;;;;;16.00;16.00;;;;;19.04;43.61;98882.94;6213464;28;125752;-62
2021/05/28 02:15:28;;;;;;;;;17.00;16.00;;;;;18.98;43.78;98897.69;6211940;28;125147;-62
2021/05/28 02:18:31;;;;;;;;;18.00;16.00;;;;;18.97;43.57;98896.06;6212133;28;126589;-62
2021/05/28 02:21:34;;;;;;;;;17.00;15.40;;;;;18.80;44.12;98901.84;6213555;28;125109;-62
2021/05/28 02:24:37;;;;;;;;;18.00;15.00;;;;;18.77;44.17;98899.63;6213163;28;126453;-62
2021/05/28 02:27:44;;;;;;;;;17.40;15.20;;;;;18.82;44.05;98898.81;6211851;28;126919;-62
2021/05/28 02:30:46;;;;;;;;;18.00;16.50;;;;;18.85;44.01;98896.38;6212826;28;124576;-62
2021/05/28 02:33:49;;;;;;;;;18.40;18.40;;;;;18.82;43.82;98899.63;6212660;28;126256;-62
2021/05/28 02:36:52;;;;;;;;;15.60;15.00;;;;;18.77;44.32;98907.81;6212489;28;126305;-62
2021/05/28 02:39:57;;;;;;;;;16.00;14.25;;;;;18.82;43.94;98904.28;6212867;28;125313;-62
2021/05/28 02:43:00;;;;;;;;;20.00;18.00;;;;;18.71;44.21;98908.94;6212320;28;124771;-62
2021/05/28 02:46:03;;;;;;;;;17.00;17.00;;;;;18.56;44.29;98876.19;6212141;28;124779;-62
2021/05/28 02:49:05;;;;;;;;;19.00;17.00;;;;;18.74;44.03;98919.31;6209175;28;126294;-62
2021/05/28 02:52:08;;;;;;;;;18.00;17.00;;;;;18.65;44.14;98923.69;6212151;28;123701;-62
2021/05/28 02:55:13;;;;;;;;;18.00;17.00;;;;;18.60;44.52;98920.97;6212630;28;123942;-62
2021/05/28 02:58:15;;;;;;;;;18.00;16.00;;;;;18.60;44.53;98935.44;6211026;28;124499;-62
2021/05/28 03:01:18;;;;;;;;;16.00;15.60;;;;;18.58;44.77;98932.13;6206599;28;126427;-62
2021/05/28 03:04:21;;;;;;;;;22.40;19.00;;;;;18.56;44.46;98917.97;6212124;28;125158;-62
2021/05/28 03:07:23;;;;;;;;;17.50;16.50;;;;;18.63;44.64;98919.56;6211842;28;123859;-62
2021/05/28 03:10:27;;;;;;;;;17.50;17.00;;;;;18.68;44.21;98925.84;6211343;28;126418;-62
2021/05/28 03:13:30;;;;;;;;;16.00;16.00;;;;;18.60;44.51;98913.59;6210713;28;123391;-62
2021/05/28 03:16:33;;;;;;;;;17.60;15.00;;;;;18.55;44.62;98920.94;6212022;28;124358;-62
2021/05/28 03:19:42;;;;;;;;;17.00;16.00;;;;;18.57;44.54;98918.75;6211194;28;124921;-62
2021/05/28 03:22:45;;;;;;;;;18.60;16.60;;;;;18.52;44.43;98930.47;6186595;28;123935;-62
2021/05/28 03:25:48;;;;;;;;;19.00;18.00;;;;;18.47;44.35;98927.72;6207230;28;126992;-62
2021/05/28 03:28:52;;;;;;;;;18.00;16.00;;;;;18.34;44.82;98938.38;6209860;28;124068;-63
2021/05/28 03:31:55;;;;;;;;;19.00;18.33;;;;;18.45;44.42;98949.03;6205168;28;125588;-62
2021/05/28 03:34:58;;;;;;;;;17.75;16.00;;;;;18.44;44.56;98938.38;6208412;28;124613;-62
2021/05/28 03:38:01;;;;;;;;;16.00;15.00;;;;;18.39;44.61;98941.91;6200857;28;125156;-62
2021/05/28 03:41:05;;;;;;;;;15.00;14.75;;;;;18.36;44.67;98955.31;6206151;28;126232;-63
2021/05/28 03:44:08;;;;;;;;;17.00;17.00;;;;;18.37;44.94;98951.50;6208448;28;126014;-62
2021/05/28 03:47:11;;;;;;;;;21.00;19.60;;;;;18.28;44.84;98951.19;6204078;28;125828;-62
2021/05/28 03:50:14;;;;;;;;;15.60;14.60;;;;;18.22;45.12;98946.00;6208780;28;125156;-62
2021/05/28 03:53:17;;;;;;;;;17.40;15.60;;;;;18.15;45.66;98948.97;6210720;28;127930;-62
2021/05/28 03:56:20;;;;;;;;;21.40;17.60;;;;;18.23;45.54;98950.38;6208219;28;126425;-62
2021/05/28 03:59:23;;;;;;;;;19.00;16.00;;;;;18.23;45.48;98948.44;6208033;28;126609;-62
2021/05/28 04:02:26;;;;;;;;;18.40;16.40;;;;;18.28;45.19;98948.44;6208913;28;125063;-62
2021/05/28 04:05:29;;;;;;;;;18.00;16.50;;;;;18.24;45.33;98952.81;6190864;28;124695;-62
2021/05/28 04:08:31;;;;;;;;;21.40;20.40;;;;;18.18;45.38;98949.25;6206887;28;124868;-62
2021/05/28 04:11:35;;;;;;;;;18.60;18.00;;;;;18.22;45.44;98954.19;6201923;28;125778;-62
2021/05/28 04:14:38;;;;;;;;;20.00;19.00;;;;;18.22;45.56;98965.91;6210460;28;126058;-62
2021/05/28 04:17:40;;;;;;;;;17.40;17.40;;;;;18.11;45.47;98959.63;6200195;28;125734;-62
2021/05/28 04:20:44;;;;;;;;;21.00;20.00;;;;;18.17;45.46;98961.28;6198949;28;126437;-62
2021/05/28 04:23:46;;;;;;;;;20.20;19.20;;;;;18.23;45.36;98964.81;6204437;28;125867;-62
2021/05/28 04:26:50;;;;;;;;;16.00;16.00;;;;;18.24;45.20;98966.44;6205068;28;127277;-62
2021/05/28 04:29:53;;;;;;;;;19.40;18.00;;;;;18.18;45.69;98972.97;6201296;28;124813;-62
2021/05/28 04:32:55;;;;;;;;;18.80;17.40;;;;;18.15;45.57;98962.63;6209741;28;125292;-62
2021/05/28 04:35:58;;;;;;;;;21.00;19.00;;;;;18.27;45.40;98960.47;6209195;28;126307;-62
2021/05/28 04:39:00;;;;;;;;;21.20;19.80;;;;;18.37;45.16;98965.13;6210194;28;126603;-63
2021/05/28 04:42:05;;;;;;;;;17.60;17.00;;;;;18.37;45.25;98970.59;6202625;28;126884;-62
2021/05/28 04:45:08;;;;;;;;;19.75;18.00;;;;;18.39;45.24;98971.13;6201131;28;123661;-62
2021/05/28 04:48:10;;;;;;;;;20.60;18.60;;;;;18.54;45.01;98974.75;6209777;28;126223;-62
2021/05/28 04:51:15;;;;;;;;;18.40;18.00;;;;;18.66;44.46;98971.75;6206643;28;126297;-62
2021/05/28 04:54:17;;;;;;;;;15.00;15.00;;;;;18.72;44.18;98972.56;6208535;28;126253;-62
2021/05/28 04:57:21;;;;;;;;;15.00;13.00;;;;;18.88;43.81;98968.75;6205690;28;126618;-62
2021/05/28 05:00:25;;;;;;;;;13.00;12.00;;;;;18.98;42.92;98966.00;6201025;28;125833;-62
2021/05/28 05:03:28;;;;;;;;;12.00;11.50;;;;;19.06;42.88;98970.13;6209484;28;126058;-62
2021/05/28 05:06:31;;;;;;;;;11.00;11.00;;;;;19.27;42.09;98967.06;6209874;28;124624;-62
2021/05/28 05:09:33;;;;;;;;;12.60;11.60;;;;;19.28;42.11;98967.88;6209775;28;126266;-62
2021/05/28 05:12:37;;;;;;;;;11.00;11.00;;;;;19.22;41.68;98964.34;6198118;28;126543;-62
2021/05/28 05:15:40;;;;;;;;;10.00;8.80;;;;;19.32;41.36;98971.69;6208906;28;126572;-62
2021/05/28 05:18:45;;;;;;;;;6.20;6.00;;;;;19.49;40.76;98974.16;6206426;28;126538;-62
2021/05/28 05:21:48;;;;;;;;;6.40;6.00;;;;;19.56;40.72;98980.16;6199436;28;124909;-62
2021/05/28 05:24:51;;;;;;;;;7.00;7.00;;;;;19.57;40.22;98988.09;6184758;28;126190;-62
2021/05/28 05:27:55;;;;;;;;;8.00;8.00;;;;;19.69;39.94;98996.81;6205403;28;126175;-62
2021/05/28 05:30:58;;;;;;;;;8.00;8.00;;;;;19.89;40.23;99002.19;6189735;28;126949;-62
2021/05/28 05:34:01;;;;;;;;;8.00;7.00;;;;;20.08;39.27;98999.69;6191642;28;126185;-62
2021/05/28 05:37:03;;;;;;;;;8.00;8.00;;;;;20.05;39.46;98983.78;6189659;28;125254;-62
2021/05/28 05:40:07;;;;;;;;;6.60;6.60;;;;;20.20;39.09;99002.88;6196223;28;125189;-62
2021/05/28 05:43:11;;;;;;;;;7.00;6.00;;;;;20.10;38.91;98993.91;6188579;28;124952;-62
2021/05/28 05:46:14;;;;;;;;;8.00;7.00;;;;;20.29;38.22;99001.19;6206029;28;125279;-62
2021/05/28 05:49:16;;;;;;;;;7.60;6.40;;;;;20.28;38.06;99004.22;6198184;28;124952;-62
2021/05/28 05:52:19;;;;;;;;;8.25;7.25;;;;;20.28;38.84;99001.50;6233099;27;123913;-62
2021/05/28 05:55:23;;;;;;;;;8.00;7.00;;;;;20.39;38.74;99013.22;6207989;28;125169;-62
2021/05/28 05:58:27;;;;;;;;;6.00;6.00;;;;;20.41;38.23;99011.84;6204441;28;126277;-62
2021/05/28 06:01:29;;;;;;;;;7.00;7.00;;;;;20.51;38.32;99020.00;6234822;27;126101;-62
2021/05/28 06:04:32;;;;;;;;;8.80;8.20;;;;;20.79;38.22;99014.88;6210126;28;128127;-62
2021/05/28 06:07:35;;;;;;;;;7.00;6.20;;;;;20.94;37.49;99012.84;6211930;28;126312;-62
2021/05/28 06:10:37;;;;;;;;;6.00;6.00;;;;;21.04;37.37;99018.25;6205156;28;126451;-62
2021/05/28 06:13:41;;;;;;;;;6.00;6.00;;;;;21.16;37.69;99015.97;6188070;28;127359;-62
2021/05/28 06:16:44;;;;;;;;;8.25;7.75;;;;;21.06;37.01;98999.59;6192324;28;124890;-62
2021/05/28 06:19:47;;;;;;;;;7.00;6.00;;;;;21.36;36.98;99020.47;6205179;28;125207;-63
2021/05/28 06:22:49;;;;;;;;;6.00;5.50;;;;;21.43;36.69;99017.38;6199913;28;126511;-61
2021/05/28 06:25:53;;;;;;;;;7.00;7.00;;;;;21.55;36.57;99021.38;6204712;28;126631;-64
2021/05/28 06:28:57;;;;;;;;;5.50;5.00;;;;;21.72;36.47;99017.34;6207869;28;125611;-61
2021/05/28 06:31:59;;;;;;;;;5.00;5.00;;;;;21.87;36.60;99018.00;6206192;28;125358;-63
2021/05/28 06:35:03;;;;;;;;;4.00;4.00;;;;;21.92;35.13;99011.66;6203254;28;126780;-62
2021/05/28 06:38:08;;;;;;;;;6.00;5.00;;;;;22.06;35.51;99020.84;6203115;28;125878;-63
2021/05/28 06:41:11;;;;;;;;;6.00;5.20;;;;;22.02;34.90;99023.34;6210451;28;124882;-62
2021/05/28 06:44:14;;;;;;;;;6.60;6.00;;;;;22.09;36.00;99020.25;6202341;28;124581;-63
2021/05/28 06:47:17;;;;;;;;;6.00;6.00;;;;;22.06;35.12;99012.59;6201791;28;125195;-62
2021/05/28 06:50:20;;;;;;;;;5.00;4.00;;;;;21.95;35.44;99009.16;6207451;28;124905;-62
2021/05/28 06:53:23;;;;;;;;;4.00;4.00;;;;;22.03;35.18;99018.69;6208926;28;125026;-62
2021/05/28 06:56:26;;;;;;;;;5.00;4.00;;;;;22.09;35.58;99016.69;6207712;28;125135;-62
2021/05/28 06:59:30;;;;;;;;;4.00;3.60;;;;;22.26;34.47;99023.31;6208011;28;125916;-62
2021/05/28 07:02:33;;;;;;;;;3.00;3.00;;;;;22.48;33.65;99027.44;6208934;28;124133;-63
2021/05/28 07:05:35;;;;;;;;;5.00;4.00;;;;;22.55;33.43;99031.44;6212252;28;124330;-62
2021/05/28 07:08:38;;;;;;;;;4.00;4.00;;;;;22.81;33.69;99030.00;6211495;28;123922;-62
2021/05/28 07:11:41;;;;;;;;;4.00;4.00;;;;;22.97;33.63;99022.31;6211667;28;126243;-62
2021/05/28 07:14:45;;;;;;;;;5.00;5.00;;;;;23.22;33.65;99023.81;6211611;28;126124;-63
2021/05/28 07:17:48;;;;;;;;;5.00;4.00;;;;;23.50;33.36;99019.25;6210444;28;123478;-63
2021/05/28 07:20:50;;;;;;;;;4.40;4.00;;;;;23.63;32.68;99018.47;6212091;28;127906;-62
2021/05/28 07:23:53;;;;;;;;;3.00;3.00;;;;;23.45;32.40;99022.09;6212082;28;124504;-62
2021/05/28 07:26:56;;;;;;;;;5.80;4.20;;;;;23.46;32.15;99020.97;6211858;28;125217;-62
2021/05/28 07:30:03;;;;;;;;;3.00;3.00;;;;;23.53;32.97;99027.72;6212208;28;127132;-62
2021/05/28 07:33:05;;;;;;;;;5.00;5.00;;;;;23.41;32.10;99026.56;6203136;28;124788;-62
2021/05/28 07:36:09;;;;;;;;;6.00;5.40;;;;;23.48;32.00;99019.56;6206986;28;126840;-62
2021/05/28 07:39:11;;;;;;;;;5.00;4.00;;;;;23.72;32.56;99016.63;6209199;28;124903;-62
2021/05/28 07:42:15;;;;;;;;;5.00;5.00;;;;;23.58;32.07;99016.63;6202616;28;124866;-62
2021/05/28 07:45:19;;;;;;;;;6.00;5.00;;;;;23.57;32.24;99014.16;6202392;28;125970;-62
2021/05/28 07:48:22;;;;;;;;;5.00;4.60;;;;;23.53;31.40;99013.13;6209213;28;126278;-61
2021/05/28 07:51:24;;;;;;;;;4.00;4.00;;;;;23.60;31.52;99017.13;6205335;28;126614;-61
2021/05/28 07:54:27;;;;;;;;;5.00;3.60;;;;;23.85;31.62;99015.81;6202052;28;126283;-63
2021/05/28 07:57:30;;;;;;;;;5.00;4.00;;;;;23.87;31.51;99010.00;6205206;28;125137;-62
2021/05/28 08:00:34;;;;;;;;;6.00;5.50;;;;;23.80;31.66;99015.91;6202187;28;126113;-62
2021/05/28 08:03:37;;;;;;;;;5.00;5.00;;;;;23.63;31.36;99012.97;6211539;28;125593;-62
2021/05/28 08:06:39;;;;;;;;;5.00;5.00;;;;;23.47;32.30;99020.66;6209112;28;123950;-64
2021/05/28 08:09:42;;;;;;;;;7.00;6.00;;;;;23.23;32.56;98993.28;6209303;28;126091;-62
2021/05/28 08:12:45;;;;;;;;;5.60;5.00;;;;;23.28;32.43;99017.94;6211051;28;126218;-62
2021/05/28 08:15:48;;;;;;;;;5.00;5.00;;;;;23.28;32.59;99014.38;6209611;28;125158;-62
2021/05/28 08:18:52;;;;;;;;;5.00;4.00;;;;;23.50;32.29;99008.25;6206834;28;125131;-62
2021/05/28 08:21:54;;;;;;;;;4.40;4.40;;;;;23.85;32.09;99009.53;6209380;28;124758;-62
2021/05/28 08:24:57;;;;;;;;;5.00;5.00;;;;;24.30;31.80;99011.34;6208543;28;125003;-62
2021/05/28 08:28:00;;;;;;;;;4.20;4.00;;;;;24.77;31.32;99017.47;6197435;28;126171;-62
2021/05/28 08:31:05;;;;;;;;;5.00;4.80;;;;;24.94;29.90;99012.94;6209522;28;127179;-62
2021/05/28 08:34:07;;;;;;;;;5.20;4.80;;;;;25.23;29.85;99014.44;6209115;28;124654;-62
2021/05/28 08:37:14;;;;;;;;;4.50;4.50;;;;;25.12;30.07;99013.06;6209691;28;124742;-62
2021/05/28 08:40:18;;;;;;;;;5.00;4.40;;;;;25.20;29.42;99012.31;6209735;28;126949;-62
2021/05/28 08:43:20;;;;;;;;;5.00;4.25;;;;;25.38;28.94;99027.84;6203831;28;126036;-63
2021/05/28 08:46:24;;;;;;;;;5.00;5.00;;;;;25.35;29.19;99023.78;6189428;28;125403;-62
2021/05/28 08:49:27;;;;;;;;;5.00;5.00;;;;;25.32;29.12;99021.63;6223966;28;126412;-62
2021/05/28 08:52:29;;;;;;;;;6.00;6.00;;;;;25.62;29.20;99020.06;6207719;28;124269;-63
2021/05/28 08:55:33;;;;;;;;;6.00;5.60;;;;;25.91;28.44;99007.66;6205088;28;126168;-62
2021/05/28 08:58:37;;;;;;;;;5.00;5.00;;;;;25.85;28.77;99007.81;6199906;28;126321;-63
2021/05/28 09:01:41;;;;;;;;;6.00;5.75;;;;;25.62;28.55;99006.25;6197603;28;124914;-63
2021/05/28 09:04:43;;;;;;;;;7.60;6.00;;;;;25.63;29.67;99018.94;6208720;28;125226;-63
2021/05/28 09:07:55;;;;;;;;;6.00;5.00;;;;;25.64;28.69;99016.97;6199389;28;125972;-63
2021/05/28 09:11:05;;;;;;;;;6.00;6.00;;;;;25.09;29.19;98964.03;6196234;28;125071;-63
2021/05/28 09:14:08;;;;;;;;;7.00;7.00;;;;;25.46;28.67;98996.72;6200656;28;126391;-62
2021/05/28 09:17:13;;;;;;;;;7.40;6.00;;;;;25.59;28.45;99011.59;6207499;28;125210;-63
2021/05/28 09:20:15;;;;;;;;;8.00;6.00;;;;;25.31;28.05;99000.72;6209470;28;125762;-63
2021/05/28 09:23:19;;;;;;;;;6.40;6.40;;;;;25.02;29.48;99003.09;6214758;28;124795;-63
2021/05/28 09:26:24;;;;;;;;;5.00;5.00;;;;;25.07;29.45;99004.94;6214476;28;126838;-63
2021/05/28 09:29:29;;;;;;;;;7.00;7.00;;;;;25.00;29.27;99008.09;6196646;28;124289;-63
2021/05/28 09:32:33;;;;;;;;;8.00;7.60;;;;;24.82;29.96;99011.84;6213715;28;126593;-63
2021/05/28 09:35:36;;;;;;;;;15.50;12.00;;;;;24.50;30.17;99005.38;6213912;28;126645;-63
2021/05/28 09:38:40;;;;;;;;;10.00;9.00;;;;;24.50;30.57;99010.91;6214214;28;126238;-63
2021/05/28 09:41:45;;;;;;;;;7.40;7.00;;;;;24.42;30.83;99006.13;6213667;28;126763;-63
2021/05/28 09:44:48;;;;;;;;;7.00;7.00;;;;;24.49;31.22;99009.25;6214316;28;126080;-63
2021/05/28 09:47:52;;;;;;;;;7.00;7.00;;;;;24.52;31.22;99005.91;6213745;28;125699;-63
2021/05/28 09:50:57;;;;;;;;;8.50;8.00;;;;;24.90;31.25;99008.34;6213991;28;126067;-62
2021/05/28 09:54:12;;;;;;;;;7.20;6.00;;;;;25.36;28.73;98997.00;6210236;28;124598;-63
2021/05/28 09:57:28;;;;;;;;;5.20;4.60;;;;;25.33;28.13;98995.66;6213825;28;126847;-63
2021/05/28 10:00:33;;;;;;;;;6.00;6.00;;;;;25.38;29.12;99008.53;6214172;28;127351;-63
2021/05/28 10:03:38;;;;;;;;;6.00;5.00;;;;;25.40;29.55;99018.13;6211840;28;126890;-63
2021/05/28 10:06:41;;;;;;;;;6.00;5.20;;;;;25.59;30.76;99008.84;6199649;28;124292;-63
2021/05/28 10:09:45;;;;;;;;;10.00;9.00;;;;;25.49;29.52;99000.78;6213641;28;124742;-63
2021/05/28 10:12:48;;;;;;;;;7.00;7.00;;;;;25.31;29.90;99003.47;6214006;28;124339;-63
2021/05/28 10:15:52;;;;;;;;;7.00;6.67;;;;;25.30;29.82;99004.59;6213732;28;125931;-63
2021/05/28 10:18:57;;;;;;;;;6.33;6.00;;;;;25.26;29.25;99008.31;6213138;28;125848;-63
2021/05/28 10:22:01;;;;;;;;;7.40;6.40;;;;;25.16;29.22;98986.47;6216576;28;124539;-63
2021/05/28 10:25:05;;;;;;;;;9.00;8.00;;;;;25.15;29.91;98996.69;6212875;28;126318;-63
2021/05/28 10:28:16;;;;;;;;;7.00;7.00;;;;;24.95;29.79;98994.44;6212173;28;124928;-63
2021/05/28 10:31:19;;;;;;;;;8.00;7.00;;;;;24.66;30.43;99005.03;6213124;28;126167;-62
2021/05/28 10:34:24;;;;;;;;;6.00;6.00;;;;;24.62;30.91;98993.00;6213396;28;125243;-62
2021/05/28 10:37:28;;;;;;;;;5.40;5.40;;;;;24.55;31.28;98985.97;6228813;28;123102;-61
2021/05/28 10:40:33;;;;;;;;;6.00;5.75;;;;;24.66;30.98;98989.31;6213250;28;126089;-62
2021/05/28 10:43:38;;;;;;;;;6.00;5.00;;;;;24.65;30.51;98992.38;6203547;28;124783;-63
2021/05/28 10:47:18;;;;;;;;;4.60;4.00;;;;;24.73;29.74;98983.38;6212445;28;126001;-62
2021/05/28 10:50:47;;;;;;;;;4.00;4.00;;;;;24.91;29.06;98976.91;6189944;28;126470;-63
2021/05/28 10:54:23;;;;;;;;;4.00;4.00;;;;;25.05;29.06;98977.66;6186340;28;126641;-63
2021/05/28 10:57:50;;;;;;;;;4.25;4.00;;;;;25.33;27.41;98981.88;6190996;28;125672;-62
2021/05/28 11:00:52;;;;;;;;;5.00;3.80;;;;;25.57;27.19;98973.25;6187979;28;126067;-63
2021/05/28 11:03:55;;;;;;;;;3.00;3.00;;;;;25.76;27.13;98976.59;6202749;28;125168;-64
2021/05/28 11:07:17;;;;;;;;;3.00;3.00;;;;;26.05;27.48;98980.72;6190790;28;126398;-62
2021/05/28 11:10:23;;;;;;;;;4.00;4.00;;;;;26.15;26.91;98972.13;6203279;28;125399;-62
2021/05/28 11:13:58;;;;;;;;;3.60;3.60;;;;;26.10;26.36;98978.63;6191754;28;125739;-62
2021/05/28 11:17:15;;;;;;;;;4.00;4.00;;;;;26.19;25.26;98981.44;6191338;28;126466;-62
2021/05/28 11:20:24;;;;;;;;;3.50;3.50;;;;;26.30;25.85;98972.53;6187930;28;125975;-64
2021/05/28 11:23:41;;;;;;;;;4.00;4.00;;;;;26.48;26.59;98976.16;6191012;28;126308;-62
2021/05/28 11:26:44;;;;;;;;;3.00;3.00;;;;;27.00;25.78;98971.44;6190524;28;124790;-62
2021/05/28 11:29:53;;;;;;;;;4.00;4.00;;;;;27.14;25.23;98969.31;6187854;28;125052;-62
2021/05/28 11:32:56;;;;;;;;;3.40;3.40;;;;;27.22;24.62;98973.19;6201067;28;124729;-62
2021/05/28 11:35:59;;;;;;;;;5.00;4.00;;;;;27.36;24.89;98971.06;6201275;28;125105;-62
2021/05/28 11:39:05;;;;;;;;;2.00;2.00;;;;;27.53;25.15;98972.97;6186954;28;125039;-62
2021/05/28 11:42:08;;;;;;;;;5.00;4.00;;;;;27.58;24.96;98970.84;6196305;28;125965;-63
2021/05/28 11:45:13;;;;;;;;;4.00;3.00;;;;;27.73;24.34;98969.47;6200997;28;124716;-62
2021/05/28 11:48:18;;;;;;;;;4.00;4.00;;;;;28.09;24.17;98973.72;6187252;28;122826;-62
2021/05/28 11:51:21;;;;;;;;;3.00;3.00;;;;;28.18;23.65;98972.53;6188377;28;126279;-62
2021/05/28 11:54:26;;;;;;;;;4.00;4.00;;;;;28.10;23.63;98931.78;6235270;27;125275;-62
2021/05/28 11:57:29;;;;;;;;;3.00;3.00;;;;;28.01;23.36;98967.88;6201141;28;124175;-63
2021/05/28 12:00:35;;;;;;;;;3.00;3.00;;;;;28.18;24.26;98966.19;6200642;28;127023;-63
2021/05/28 12:03:37;;;;;;;;;4.00;4.00;;;;;28.29;23.29;98965.47;6211781;28;126852;-62
2021/05/28 12:06:40;;;;;;;;;4.00;4.00;;;;;27.98;24.33;98968.53;6193059;28;126369;-63
2021/05/28 12:10:03;;;;;;;;;3.60;3.60;;;;;27.33;25.35;98957.84;6211023;28;126223;-62
2021/05/28 12:13:07;;;;;;;;;5.40;5.00;;;;;26.97;24.99;98949.97;6205690;28;126757;-62
2021/05/28 12:16:12;;;;;;;;;4.00;4.00;;;;;27.06;25.62;98941.66;6210290;28;125787;-61
2021/05/28 12:19:16;;;;;;;;;5.00;5.00;;;;;26.97;24.78;98949.16;6210576;28;124667;-62
2021/05/28 12:22:20;;;;;;;;;4.80;4.80;;;;;26.44;25.19;98943.94;6206305;28;124667;-62
2021/05/28 12:25:24;;;;;;;;;5.60;5.00;;;;;26.51;25.44;98945.06;6209111;28;126148;-62
2021/05/28 12:28:31;;;;;;;;;4.00;4.00;;;;;26.32;25.83;98941.00;6198538;28;124870;-62
2021/05/28 12:31:35;;;;;;;;;4.00;4.00;;;;;26.21;26.48;98943.22;6230358;27;124808;-63
2021/05/28 12:34:38;;;;;;;;;4.00;4.00;;;;;26.25;26.88;98944.22;6196533;28;128252;-63
2021/05/28 12:38:06;;;;;;;;;4.00;4.00;;;;;26.26;26.69;98934.81;6210780;28;126050;-62
2021/05/28 12:41:12;;;;;;;;;3.60;3.60;;;;;26.18;27.36;98941.13;6207999;28;125896;-62
2021/05/28 12:44:16;;;;;;;;;4.00;3.00;;;;;26.18;26.86;98939.16;6207883;28;126565;-62
2021/05/28 12:47:19;;;;;;;;;3.50;3.00;;;;;26.39;27.24;98949.63;6206252;28;125592;-62
2021/05/28 12:50:25;;;;;;;;;3.00;3.00;;;;;26.72;26.39;98940.53;6202524;28;127579;-62
2021/05/28 12:53:36;;;;;;;;;4.40;4.00;;;;;26.72;26.01;98945.25;6207376;28;126174;-62
2021/05/28 12:56:41;;;;;;;;;5.00;5.00;;;;;26.68;26.02;98950.59;6210539;28;125699;-63
2021/05/28 12:59:43;;;;;;;;;4.00;3.40;;;;;26.81;26.27;98937.75;6207414;28;126211;-63
2021/05/28 13:02:46;;;;;;;;;4.00;4.00;;;;;26.74;25.51;98941.00;6206257;28;124969;-63
2021/05/28 13:05:49;;;;;;;;;4.00;3.50;;;;;26.57;25.00;98943.78;6212807;28;125041;-63
2021/05/28 13:08:53;;;;;;;;;4.00;4.00;;;;;26.68;25.79;98947.03;6207799;28;124869;-63
2021/05/28 13:12:01;;;;;;;;;4.00;4.00;;;;;26.85;26.06;98937.91;6211430;28;126185;-63
2021/05/28 13:15:05;;;;;;;;;7.00;6.00;;;;;26.87;26.09;98924.59;6208367;28;125966;-63
2021/05/28 13:18:08;;;;;;;;;6.00;5.00;;;;;26.92;26.17;98932.72;6204585;28;126379;-63
2021/05/28 13:21:25;;;;;;;;;4.75;4.75;;;;;27.12;25.75;98934.81;6206505;28;126752;-63
2021/05/28 13:24:39;;;;;;;;;6.00;5.00;;;;;27.35;25.33;98938.16;6194227;28;124060;-63
2021/05/28 13:27:44;;;;;;;;;5.00;5.00;;;;;27.40;24.84;98930.47;6208556;28;124498;-63
2021/05/28 13:30:49;;;;;;;;;5.40;4.00;;;;;27.34;25.41;98930.97;6209599;28;126196;-63
2021/05/28 13:33:53;;;;;;;;;5.00;5.00;;;;;27.32;25.11;98936.84;6210301;28;126205;-63
2021/05/28 13:36:55;;;;;;;;;5.00;4.80;;;;;27.23;25.47;98930.53;6207624;28;125052;-63
2021/05/28 13:40:02;;;;;;;;;5.00;5.00;;;;;27.21;26.03;98932.81;6199237;28;124329;-63
2021/05/28 13:43:06;;;;;;;;;8.00;7.00;;;;;27.09;25.71;98929.91;6195259;28;125625;-63
2021/05/28 13:46:10;;;;;;;;;6.00;6.00;;;;;26.87;26.05;98921.84;6200829;28;124888;-63
2021/05/28 13:49:13;;;;;;;;;5.00;5.00;;;;;26.76;26.95;98926.03;6202755;28;125988;-63
2021/05/28 13:52:15;;;;;;;;;5.67;5.67;;;;;26.57;26.94;98932.72;6191013;28;124461;-63
2021/05/28 13:55:18;;;;;;;;;6.00;6.00;;;;;26.44;26.86;98932.91;6191590;28;123732;-63
2021/05/28 13:58:23;;;;;;;;;7.00;7.00;;;;;26.47;26.88;98929.47;6213632;28;127390;-63
2021/05/28 14:01:26;;;;;;;;;6.00;5.00;;;;;26.41;26.95;98928.00;6209582;28;126490;-63
2021/05/28 14:04:29;;;;;;;;;5.00;5.00;;;;;26.31;26.92;98929.13;6213663;28;127401;-63
2021/05/28 14:07:32;;;;;;;;;5.00;5.00;;;;;26.28;26.81;98922.31;6212537;28;125276;-63
2021/05/28 14:10:35;;;;;;;;;6.00;5.00;;;;;26.23;27.47;98928.00;6203672;28;124112;-63